Time;durP1;ratioP1;P1;durP2;ratioP2;P2;SDS_P1;SDS_P2;PMS_P1;PMS_P2;Temp;Humidity;BMP_temperature;BMP_pressure;BME280_temperature;BME280_humidity;BME280_pressure;Samples;Min_cycle;Max_cycle;Signal;HPM_P1;HPM_P2
2022/05/08 00:02:07;;;;;;;7.18;5.40;;;;;;;13.30;89.37;99175.44;4485250;31;20119;-71
2022/05/08 00:04:35;;;;;;;7.37;5.35;;;;;;;13.30;89.30;99175.44;4485393;31;20181;-71
2022/05/08 00:07:02;;;;;;;10.63;5.80;;;;;;;13.31;89.50;99174.50;4485409;31;20093;-71
2022/05/08 00:09:29;;;;;;;7.95;5.55;;;;;;;13.31;88.98;99177.13;4485214;31;20525;-71
2022/05/08 00:11:57;;;;;;;7.32;5.20;;;;;;;13.26;89.21;99171.47;4485154;31;20102;-71
2022/05/08 00:14:25;;;;;;;6.55;5.22;;;;;;;13.29;88.92;99167.69;4485318;31;20115;-71
2022/05/08 00:16:52;;;;;;;10.68;5.47;;;;;;;13.26;88.93;99168.84;4484899;31;20119;-71
2022/05/08 00:19:19;;;;;;;6.85;5.57;;;;;;;13.30;88.94;99164.94;4485327;32;20112;-71
2022/05/08 00:21:46;;;;;;;7.00;5.18;;;;;;;13.26;88.79;99166.22;4485113;31;20099;-71
2022/05/08 00:24:13;;;;;;;9.98;5.75;;;;;;;13.28;88.72;99166.88;4485026;31;20100;-71
2022/05/08 00:26:41;;;;;;;7.75;5.20;;;;;;;13.27;88.59;99154.69;4485248;31;20076;-71
2022/05/08 00:29:10;;;;;;;8.50;5.40;;;;;;;13.31;87.96;99155.25;4485364;31;20100;-71
2022/05/08 00:31:38;;;;;;;6.28;5.37;;;;;;;13.37;87.37;99149.44;4485170;32;20187;-71
2022/05/08 00:34:06;;;;;;;7.93;5.12;;;;;;;13.39;87.33;99152.75;4484938;32;20880;-71
2022/05/08 00:36:38;;;;;;;6.15;5.00;;;;;;;13.37;87.04;99159.12;4484971;31;20107;-71
2022/05/08 00:39:06;;;;;;;6.07;5.05;;;;;;;13.30;87.57;99153.59;4485121;31;20888;-71
2022/05/08 00:41:33;;;;;;;7.18;4.70;;;;;;;13.30;87.08;99143.88;4485022;31;20450;-71
2022/05/08 00:44:00;;;;;;;8.18;5.20;;;;;;;13.35;86.72;99140.03;4484783;31;20104;-71
2022/05/08 00:46:29;;;;;;;8.27;4.95;;;;;;;13.41;86.37;99147.34;4484915;31;20159;-71
2022/05/08 00:48:57;;;;;;;7.37;5.50;;;;;;;13.38;86.47;99145.00;4485165;31;20093;-71
2022/05/08 00:51:24;;;;;;;6.70;5.15;;;;;;;13.34;86.67;99138.34;4485037;31;20100;-71
2022/05/08 00:53:53;;;;;;;6.78;5.10;;;;;;;13.36;86.96;99136.44;4484865;32;20419;-71
2022/05/08 00:56:20;;;;;;;7.53;5.62;;;;;;;13.31;87.38;99147.34;4485129;31;20119;-71
2022/05/08 00:58:50;;;;;;;7.45;5.60;;;;;;;13.27;87.95;99148.63;4484852;31;20089;-71
2022/05/08 01:01:18;;;;;;;11.48;5.45;;;;;;;13.20;88.42;99142.25;4484880;31;20092;-71
2022/05/08 01:03:45;;;;;;;8.75;5.53;;;;;;;13.17;88.84;99140.78;4484802;31;20096;-71
2022/05/08 01:06:14;;;;;;;7.22;5.55;;;;;;;12.99;90.04;99139.84;4483494;32;20413;-71
2022/05/08 01:08:43;;;;;;;7.03;5.28;;;;;;;12.95;90.25;99139.31;4484693;32;20147;-71
2022/05/08 01:11:11;;;;;;;9.05;5.87;;;;;;;12.95;90.46;99140.13;4484990;31;20108;-71
2022/05/08 01:13:39;;;;;;;9.50;6.20;;;;;;;12.94;90.73;99138.50;4484777;31;20142;-71
2022/05/08 01:16:08;;;;;;;8.73;5.78;;;;;;;12.83;91.83;99150.97;4484619;31;20163;-71
2022/05/08 01:18:41;;;;;;;;;;;;;;;12.76;92.20;99145.44;4484911;31;20135;-71
2022/05/08 01:21:10;;;;;;;7.82;5.72;;;;;;;12.63;92.33;99144.91;4484885;32;20010;-71
2022/05/08 01:23:38;;;;;;;7.40;5.30;;;;;;;12.59;92.35;99144.38;4483435;32;20084;-71
2022/05/08 01:26:05;;;;;;;9.55;5.45;;;;;;;12.46;92.86;99143.81;4484508;31;20122;-71
2022/05/08 01:28:33;;;;;;;8.45;6.05;;;;;;;12.44;92.88;99143.97;4484887;32;20076;-71
2022/05/08 01:31:00;;;;;;;9.07;5.60;;;;;;;12.40;93.38;99139.97;4484422;31;20100;-71
2022/05/08 01:33:27;;;;;;;7.82;5.65;;;;;;;12.35;93.73;99142.19;4484621;31;20161;-71
2022/05/08 01:35:56;;;;;;;7.82;5.57;;;;;;;12.30;94.11;99142.59;4484534;32;20628;-71
2022/05/08 01:38:24;;;;;;;7.95;5.37;;;;;;;12.20;94.96;99145.25;4484420;31;20156;-71
2022/05/08 01:40:51;;;;;;;7.85;5.60;;;;;;;12.16;95.68;99143.03;4484332;31;20131;-71
2022/05/08 01:43:18;;;;;;;7.82;6.05;;;;;;;12.09;96.14;99140.09;4484352;31;20188;-71
2022/05/08 01:45:47;;;;;;;8.40;5.72;;;;;;;12.10;96.35;99139.16;4484145;31;20126;-71
2022/05/08 01:48:25;;;;;;;8.50;6.43;;;;;;;12.03;96.77;99143.28;4484090;31;20149;-71
2022/05/08 01:50:55;;;;;;;7.20;5.43;;;;;;;12.05;96.97;99141.34;4484197;32;20592;-71
2022/05/08 01:53:23;;;;;;;11.63;6.05;;;;;;;12.05;96.81;99136.94;4484343;31;20115;-71
2022/05/08 01:55:55;;;;;;;9.45;6.90;;;;;;;12.13;96.46;99143.31;4484129;31;20123;-71
2022/05/08 01:58:24;;;;;;;11.48;6.43;;;;;;;12.12;96.76;99141.63;4484336;31;20072;-71
2022/05/08 02:00:52;;;;;;;9.55;5.53;;;;;;;12.11;96.61;99146.03;4484520;31;20120;-71
2022/05/08 02:03:20;;;;;;;9.73;5.45;;;;;;;12.15;96.31;99141.38;4484113;32;20567;-71
2022/05/08 02:05:48;;;;;;;9.07;5.85;;;;;;;12.07;96.70;99142.88;4485317;32;20084;-71
2022/05/08 02:08:15;;;;;;;8.80;5.90;;;;;;;12.14;96.36;99137.91;4486332;31;20088;-71
2022/05/08 02:10:43;;;;;;;7.18;5.32;;;;;;;12.28;95.51;99135.81;4485918;32;20575;-71
2022/05/08 02:13:11;;;;;;;6.85;5.45;;;;;;;12.29;94.98;99143.56;4486132;31;20108;-71
2022/05/08 02:15:39;;;;;;;7.60;5.20;;;;;;;12.22;95.22;99130.16;4484581;32;20088;-71
2022/05/08 02:18:12;;;;;;;7.72;5.50;;;;;;;12.23;95.01;99138.84;4485918;31;20085;-71
2022/05/08 02:20:40;;;;;;;9.05;5.32;;;;;;;12.23;95.00;99133.59;4485714;32;20116;-71
2022/05/08 02:23:08;;;;;;;7.07;5.12;;;;;;;12.25;94.64;99137.75;4485954;31;20084;-71
2022/05/08 02:25:36;;;;;;;6.68;4.60;;;;;;;12.32;93.74;99134.56;4485983;31;20504;-71
2022/05/08 02:28:04;;;;;;;9.43;5.57;;;;;;;12.31;93.79;99133.75;4485876;31;20084;-71
2022/05/08 02:30:31;;;;;;;8.23;5.15;;;;;;;12.26;94.06;99128.06;4486029;31;20452;-71
2022/05/08 02:33:00;;;;;;;6.53;4.80;;;;;;;12.29;94.00;99130.41;4485868;31;20537;-71
2022/05/08 02:35:28;;;;;;;8.75;4.97;;;;;;;12.33;93.41;99134.44;4485990;32;20405;-71
2022/05/08 02:37:55;;;;;;;6.40;4.55;;;;;;;12.36;93.09;99135.97;4485844;31;20111;-71
2022/05/08 02:40:23;;;;;;;6.15;4.80;;;;;;;12.37;93.08;99137.59;4485855;32;20096;-71
2022/05/08 02:42:51;;;;;;;6.75;4.82;;;;;;;12.31;93.35;99135.53;4486047;32;20611;-71
2022/05/08 02:45:19;;;;;;;6.53;5.03;;;;;;;12.34;92.61;99143.12;4485937;31;20089;-71
2022/05/08 02:47:46;;;;;;;7.53;5.30;;;;;;;12.33;92.23;99152.84;4485469;31;20612;-71
2022/05/08 02:50:13;;;;;;;10.02;5.12;;;;;;;12.30;92.75;99154.91;4485755;31;20123;-71
2022/05/08 02:52:42;;;;;;;7.22;5.30;;;;;;;12.37;92.32;99164.72;4485981;31;20100;-71
2022/05/08 03:00:43;;;;;;;8.73;5.25;;;;;;;11.86;94.06;99158.72;4486009;31;20645;-71
2022/05/08 03:03:11;;;;;;;6.22;4.97;;;;;;;11.72;95.85;99165.19;4485563;31;20096;-71
2022/05/08 03:05:42;;;;;;;6.25;5.25;;;;;;;11.68;96.51;99161.16;4485715;31;20092;-71
2022/05/08 03:08:09;;;;;;;7.00;5.47;;;;;;;11.57;98.03;99157.81;4485908;31;20137;-71
2022/05/08 03:13:23;;;;;;;5.53;4.93;;;;;;;11.46;98.30;99162.22;4485702;31;20126;-71
2022/05/08 03:15:50;;;;;;;7.87;5.25;;;;;;;11.35;98.54;99157.91;4485537;31;20089;-71
2022/05/08 03:18:18;;;;;;;9.30;5.35;;;;;;;11.28;100.00;99158.53;4484506;31;20088;-71
2022/05/08 03:20:46;;;;;;;10.13;5.57;;;;;;;11.30;100.00;99159.25;4485384;31;20120;-71
2022/05/08 03:23:17;;;;;;;7.20;5.30;;;;;;;11.21;100.00;99165.28;4485406;31;20096;-71
2022/05/08 03:25:44;;;;;;;8.25;4.80;;;;;;;11.14;100.00;99168.44;4485437;31;20113;-71
2022/05/08 03:28:15;;;;;;;6.95;5.43;;;;;;;10.96;98.11;99170.84;4485511;31;20160;-71
2022/05/08 03:30:44;;;;;;;9.25;5.43;;;;;;;10.86;100.00;99172.56;4485617;31;20469;-71
2022/05/08 03:33:12;;;;;;;7.57;5.10;;;;;;;10.82;100.00;99172.00;4485480;31;20201;-71
2022/05/08 03:35:40;;;;;;;8.85;5.82;;;;;;;10.85;100.00;99185.78;4485550;31;20137;-71
2022/05/08 03:38:08;;;;;;;7.93;4.78;;;;;;;10.85;100.00;99183.16;4484088;32;20167;-71
2022/05/08 03:40:36;;;;;;;8.73;5.78;;;;;;;10.88;100.00;99172.44;4485482;31;20492;-71
2022/05/08 03:43:03;;;;;;;8.18;5.72;;;;;;;10.91;100.00;99182.66;4485399;31;20097;-71
2022/05/08 03:45:31;;;;;;;7.47;5.15;;;;;;;11.00;100.00;99179.25;4485590;31;20104;-71
2022/05/08 03:48:01;;;;;;;6.97;4.80;;;;;;;11.09;100.00;99183.72;4485463;31;20119;-71
2022/05/08 03:50:29;;;;;;;6.75;5.35;;;;;;;11.21;100.00;99183.66;4485460;31;20130;-71
2022/05/08 03:52:57;;;;;;;7.28;4.95;;;;;;;11.27;100.00;99181.31;4485610;32;20609;-71
2022/05/08 03:55:25;;;;;;;7.85;5.18;;;;;;;11.33;100.00;99183.41;4485381;31;20521;-71
2022/05/08 03:57:52;;;;;;;8.60;5.43;;;;;;;11.25;100.00;99188.50;4485166;31;20564;-71
2022/05/08 04:00:20;;;;;;;6.68;4.93;;;;;;;11.31;100.00;99187.97;4485376;32;20173;-71
2022/05/08 04:02:47;;;;;;;7.70;5.22;;;;;;;11.45;100.00;99196.47;4485167;32;20096;-71
2022/05/08 04:05:15;;;;;;;7.68;5.32;;;;;;;11.64;99.00;99198.28;4485204;32;20081;-71
2022/05/08 04:07:42;;;;;;;7.10;5.28;;;;;;;11.78;98.40;99191.84;4485290;31;20092;-71
2022/05/08 04:10:10;;;;;;;6.97;4.68;;;;;;;11.95;97.33;99198.28;4485181;31;20543;-71
2022/05/08 04:12:37;;;;;;;6.18;4.78;;;;;;;12.13;96.09;99199.28;4485339;31;20088;-71
2022/05/08 04:17:52;;;;;;;8.45;4.95;;;;;;;12.47;94.62;99206.75;4484879;31;20077;-71
2022/05/08 04:20:20;;;;;;;7.97;4.70;;;;;;;12.65;93.23;99201.63;4485244;32;20128;-71
2022/05/08 04:25:33;;;;;;;6.32;5.05;;;;;;;13.02;90.62;99210.56;4485255;32;20120;-71
2022/05/08 04:28:00;;;;;;;7.22;5.12;;;;;;;13.09;90.21;99214.28;4484713;31;20092;-71
2022/05/08 04:30:27;;;;;;;6.18;4.55;;;;;;;13.24;89.45;99215.50;4485182;31;20104;-71
2022/05/08 04:32:54;;;;;;;7.15;4.93;;;;;;;13.38;88.72;99213.41;4485179;31;20449;-71
2022/05/08 04:35:21;;;;;;;6.22;4.43;;;;;;;13.52;88.00;99214.75;4485182;31;20093;-71
2022/05/08 04:37:49;;;;;;;5.47;4.05;;;;;;;13.63;86.91;99217.19;4485100;31;20119;-71
2022/05/08 04:40:16;;;;;;;6.20;4.65;;;;;;;13.77;86.53;99218.50;4485006;31;20148;-71
2022/05/08 04:42:43;;;;;;;6.93;4.60;;;;;;;13.97;85.65;99214.81;4485046;31;20104;-71
2022/05/08 04:45:10;;;;;;;6.25;4.53;;;;;;;14.08;85.07;99212.91;4484899;31;20185;-71
2022/05/08 04:47:37;;;;;;;6.68;4.40;;;;;;;14.23;84.50;99218.50;4484636;31;20604;-71
2022/05/08 04:50:05;;;;;;;6.60;4.45;;;;;;;14.21;84.01;99216.03;4484893;31;20123;-71
2022/05/08 04:52:32;;;;;;;6.00;4.85;;;;;;;14.26;83.06;99218.22;4485060;31;20525;-71
2022/05/08 04:55:03;;;;;;;7.18;4.85;;;;;;;14.33;83.17;99220.09;4484968;31;20123;-71
2022/05/08 04:57:30;;;;;;;9.27;5.37;;;;;;;14.43;82.65;99225.31;4484893;31;20128;-71
2022/05/08 04:59:58;;;;;;;7.37;4.60;;;;;;;14.57;81.94;99221.31;4484839;31;20105;-71
2022/05/08 05:02:26;;;;;;;5.22;4.72;;;;;;;14.69;81.85;99230.66;4485107;31;20118;-71
2022/05/08 05:04:53;;;;;;;5.82;4.32;;;;;;;14.89;80.68;99230.50;4484697;31;20544;-71
2022/05/08 05:07:20;;;;;;;8.15;4.95;;;;;;;14.96;79.64;99231.53;4484916;31;20088;-71
2022/05/08 05:09:48;;;;;;;8.10;4.87;;;;;;;15.00;78.38;99232.88;4484666;32;20092;-72
2022/05/08 05:12:15;;;;;;;5.50;4.65;;;;;;;15.18;78.25;99238.09;4484791;31;20551;-71
2022/05/08 05:14:42;;;;;;;6.03;4.55;;;;;;;15.17;77.11;99239.09;4484724;31;20123;-71
2022/05/08 05:17:09;;;;;;;8.30;5.18;;;;;;;15.28;77.05;99240.66;4484516;31;20115;-71
2022/05/08 05:19:36;;;;;;;6.78;5.10;;;;;;;15.50;76.60;99244.56;4484499;31;20100;-71
2022/05/08 05:22:03;;;;;;;8.07;4.95;;;;;;;15.38;76.08;99241.38;4484715;31;20799;-71
2022/05/08 05:24:31;;;;;;;7.87;4.93;;;;;;;15.48;77.02;99245.72;4484522;31;20084;-71
2022/05/08 05:26:59;;;;;;;5.57;4.25;;;;;;;15.80;75.92;99237.13;4484564;32;20097;-71
2022/05/08 05:29:26;;;;;;;5.40;4.35;;;;;;;16.13;74.71;99240.72;4484585;31;20537;-71
2022/05/08 05:31:53;;;;;;;16.37;5.03;;;;;;;16.13;73.59;99234.59;4484552;31;20163;-71
2022/05/08 05:34:20;;;;;;;5.43;4.25;;;;;;;16.25;72.03;99235.12;4484335;31;20547;-71
2022/05/08 05:36:47;;;;;;;6.37;4.72;;;;;;;16.26;72.31;99239.41;4484492;31;20103;-71
2022/05/08 05:39:15;;;;;;;6.35;4.47;;;;;;;16.31;72.28;99242.41;4484149;32;20100;-71
2022/05/08 05:41:42;;;;;;;6.15;4.20;;;;;;;16.47;72.21;99242.44;4483904;32;20457;-71
2022/05/08 05:44:09;;;;;;;8.65;5.00;;;;;;;16.63;70.74;99244.25;4484500;31;20077;-71
2022/05/08 05:49:25;;;;;;;6.95;4.55;;;;;;;16.59;69.59;99250.06;4484137;31;20134;-71
2022/05/08 05:51:56;;;;;;;8.57;4.40;;;;;;;16.73;69.08;99254.69;4484707;31;20131;-71
2022/05/08 05:54:24;;;;;;;8.30;4.80;;;;;;;16.78;69.46;99244.44;4484543;31;20119;-71
2022/05/08 05:56:51;;;;;;;8.18;4.45;;;;;;;17.04;69.05;99256.69;4484234;31;20088;-71
2022/05/08 05:59:19;;;;;;;8.40;5.15;;;;;;;16.99;69.11;99251.09;4484155;31;20511;-71
2022/05/08 06:02:05;;;;;;;6.68;4.20;;;;;;;17.22;68.95;99247.75;4484209;31;20084;-71
2022/05/08 06:04:33;;;;;;;5.62;4.68;;;;;;;17.24;67.64;99253.69;4483812;31;20155;-71
2022/05/08 06:07:00;;;;;;;6.55;4.62;;;;;;;17.21;66.75;99257.50;4484088;31;20111;-71
2022/05/08 06:09:27;;;;;;;7.40;4.85;;;;;;;17.32;67.73;99251.88;4483866;31;20402;-71
2022/05/08 06:11:54;;;;;;;10.98;4.53;;;;;;;17.52;66.64;99257.59;4483847;31;20084;-71
2022/05/08 06:14:21;;;;;;;7.28;4.90;;;;;;;17.52;64.00;99262.91;4484126;31;20088;-71
2022/05/08 06:16:49;;;;;;;9.68;4.90;;;;;;;17.60;65.05;99261.25;4483826;31;20084;-71
2022/05/08 06:19:16;;;;;;;8.07;4.97;;;;;;;17.81;63.70;99256.19;4483637;32;20104;-71
2022/05/08 06:21:49;;;;;;;8.45;5.53;;;;;;;18.17;64.19;99255.72;4483924;31;20084;-71
2022/05/08 06:24:16;;;;;;;10.65;5.97;;;;;;;17.99;62.32;99257.81;4483983;31;20109;-71
2022/05/08 06:26:44;;;;;;;10.52;6.20;;;;;;;17.79;62.23;99260.84;4483885;31;20115;-71
2022/05/08 06:29:11;;;;;;;10.68;5.68;;;;;;;17.71;62.73;99258.19;4483764;31;20453;-71
2022/05/08 06:31:39;;;;;;;9.25;6.07;;;;;;;17.61;64.09;99266.38;4483517;32;20115;-71
2022/05/08 06:34:08;;;;;;;8.52;5.50;;;;;;;17.65;63.55;99267.69;4483728;32;20517;-71
2022/05/08 06:36:35;;;;;;;10.25;6.32;;;;;;;17.63;63.57;99263.53;4482288;32;20114;-71
2022/05/08 06:39:02;;;;;;;8.25;5.72;;;;;;;17.66;63.64;99263.19;4483895;32;20096;-71
2022/05/08 06:41:30;;;;;;;7.30;5.18;;;;;;;18.02;64.77;99266.22;4483646;31;20393;-71
2022/05/08 06:43:57;;;;;;;8.63;5.97;;;;;;;18.04;62.50;99266.06;4483465;31;20123;-71
2022/05/08 06:46:24;;;;;;;6.70;5.28;;;;;;;18.07;64.09;99261.22;4483492;31;20114;-71
2022/05/08 06:48:52;;;;;;;6.93;5.10;;;;;;;18.26;61.75;99262.63;4483209;31;20462;-71
2022/05/08 06:51:19;;;;;;;12.05;5.43;;;;;;;18.24;60.43;99267.28;4484091;31;20509;-71
2022/05/08 06:53:46;;;;;;;9.55;6.05;;;;;;;18.38;60.77;99265.72;4485992;32;20092;-71
2022/05/08 06:56:15;;;;;;;8.13;5.40;;;;;;;18.61;61.67;99263.06;4485739;32;20639;-71
2022/05/08 07:01:34;;;;;;;10.20;5.70;;;;;;;18.87;61.85;99266.41;4485770;31;20093;-71
2022/05/08 07:04:02;;;;;;;11.03;5.03;;;;;;;19.18;60.11;99274.22;4485825;31;20091;-71
2022/05/08 07:06:30;;;;;;;7.95;4.85;;;;;;;19.10;58.44;99266.34;4485593;31;20127;-71
2022/05/08 07:09:09;;;;;;;6.72;5.32;;;;;;;18.94;59.43;99270.81;4485619;31;20179;-71
2022/05/08 07:11:39;;;;;;;10.88;5.35;;;;;;;19.06;59.26;99276.53;4485589;31;20156;-71
2022/05/08 07:14:07;;;;;;;11.43;5.53;;;;;;;19.35;59.46;99274.06;4485835;31;20159;-71
2022/05/08 07:16:34;;;;;;;8.32;5.45;;;;;;;19.28;60.46;99279.31;4485521;31;20088;-71
2022/05/08 07:19:02;;;;;;;9.43;5.32;;;;;;;19.28;57.80;99276.66;4485293;31;20093;-71
2022/05/08 07:21:29;;;;;;;8.55;5.10;;;;;;;19.48;57.75;99283.06;4485288;31;20466;-71
2022/05/08 07:23:56;;;;;;;7.45;5.07;;;;;;;19.58;56.65;99274.03;4485283;31;20219;-71
2022/05/08 07:26:23;;;;;;;6.95;4.87;;;;;;;19.43;56.71;99281.97;4485369;31;20122;-71
2022/05/08 07:28:50;;;;;;;8.45;5.80;;;;;;;19.30;57.20;99279.94;4485656;31;20442;-71
2022/05/08 07:31:17;;;;;;;8.27;5.30;;;;;;;19.56;57.32;99284.84;4485413;31;20149;-71
2022/05/08 07:33:45;;;;;;;7.45;5.25;;;;;;;19.48;56.48;99277.75;4485665;31;20080;-71
2022/05/08 07:36:15;;;;;;;7.25;5.50;;;;;;;19.56;57.00;99287.50;4485445;31;20119;-71
2022/05/08 07:38:46;;;;;;;9.50;5.87;;;;;;;19.62;57.49;99280.59;4485546;31;20092;-71
2022/05/08 07:41:15;;;;;;;7.53;5.22;;;;;;;19.69;56.04;99285.00;4485701;31;20153;-71
2022/05/08 07:43:45;;;;;;;6.25;4.97;;;;;;;19.78;56.34;99287.63;4485667;31;20118;-71
2022/05/08 07:46:13;;;;;;;7.07;5.68;;;;;;;19.69;54.96;99290.31;4485215;31;20181;-71
2022/05/08 07:48:41;;;;;;;8.82;5.50;;;;;;;19.94;55.59;99295.41;4485200;32;20147;-72
2022/05/08 07:51:08;;;;;;;6.65;5.07;;;;;;;20.06;55.59;99286.94;4485348;31;20156;-71
2022/05/08 07:53:35;;;;;;;7.47;5.10;;;;;;;19.94;54.71;99290.09;4485465;31;20127;-72
2022/05/08 07:56:03;;;;;;;7.78;4.93;;;;;;;19.90;54.84;99290.63;4485264;31;20487;-72
2022/05/08 07:58:33;;;;;;;10.20;5.15;;;;;;;20.19;55.21;99287.09;4485280;31;20119;-72
2022/05/08 08:01:04;;;;;;;8.48;5.35;;;;;;;20.28;55.98;99282.50;4485449;31;20188;-71
2022/05/08 08:03:33;;;;;;;5.68;4.87;;;;;;;20.34;55.56;99284.41;4484566;31;20434;-72
2022/05/08 08:06:01;;;;;;;7.55;5.35;;;;;;;20.43;53.52;99290.44;4485285;31;20272;-72
2022/05/08 08:08:38;;;;;;;7.35;5.57;;;;;;;20.81;54.34;99285.72;4485061;31;20096;-72
2022/05/08 08:11:06;;;;;;;7.57;4.70;;;;;;;21.05;53.69;99291.69;4484945;31;20104;-71
2022/05/08 08:13:35;;;;;;;5.87;4.37;;;;;;;20.66;50.63;99284.97;4485088;32;20100;-72
2022/05/08 08:16:06;;;;;;;5.60;4.15;;;;;;;20.86;51.92;99287.81;4485202;31;20072;-72
2022/05/08 08:18:35;;;;;;;6.00;4.43;;;;;;;20.95;49.64;99286.66;4484960;31;20104;-72
2022/05/08 08:21:12;;;;;;;8.50;4.70;;;;;;;21.29;51.42;99295.75;4485380;31;20118;-71
2022/05/08 08:23:41;;;;;;;6.43;4.60;;;;;;;20.98;50.06;99293.47;4485292;31;20081;-72
2022/05/08 08:26:10;;;;;;;6.85;4.78;;;;;;;21.16;54.01;99298.31;4485044;31;20096;-72
2022/05/08 08:28:37;;;;;;;7.22;5.28;;;;;;;21.46;51.51;99298.94;4485228;31;20093;-72
2022/05/08 08:31:06;;;;;;;10.57;5.82;;;;;;;21.45;49.29;99297.28;4485102;31;20414;-72
2022/05/08 08:33:37;;;;;;;9.82;5.55;;;;;;;21.50;49.36;99299.41;4483801;32;20466;-72
2022/05/08 08:36:07;;;;;;;8.75;5.28;;;;;;;21.03;49.69;99299.87;4485357;32;20084;-72
2022/05/08 08:38:38;;;;;;;6.97;5.20;;;;;;;21.38;52.97;99301.78;4485443;31;20415;-72
2022/05/08 08:41:07;;;;;;;7.28;5.12;;;;;;;21.91;52.89;99301.31;4485218;32;20085;-72
2022/05/08 08:49:27;;;;;;;6.95;5.30;;;;;;;22.68;51.15;99302.81;4485070;31;20639;-72
2022/05/08 08:51:54;;;;;;;6.07;5.22;;;;;;;23.02;47.82;99301.00;4483788;32;20123;-72
2022/05/08 08:54:22;;;;;;;7.32;5.32;;;;;;;23.16;47.19;99303.69;4483768;32;20084;-72
2022/05/08 08:56:49;;;;;;;6.30;5.60;;;;;;;23.00;47.08;99297.72;4484865;32;20080;-72
2022/05/08 08:59:22;;;;;;;6.80;5.77;;;;;;;22.87;47.17;99306.53;4485059;31;20096;-72
2022/05/08 09:01:49;;;;;;;6.18;5.35;;;;;;;22.73;47.13;99299.53;4485033;31;20198;-72
2022/05/08 09:04:18;;;;;;;6.93;4.55;;;;;;;22.57;46.99;99299.91;4483716;32;20172;-72
2022/05/08 09:06:46;;;;;;;7.32;5.65;;;;;;;22.71;51.37;99303.44;4483634;32;20116;-72
2022/05/08 09:09:34;;;;;;;8.77;5.32;;;;;;;22.86;48.87;99304.06;4484680;31;20088;-72
2022/05/08 09:12:02;;;;;;;8.23;5.62;;;;;;;22.75;46.79;99308.16;4484780;31;20474;-72
2022/05/08 09:14:31;;;;;;;9.75;5.72;;;;;;;22.63;46.89;99309.78;4483823;31;20080;-72
2022/05/08 09:17:00;;;;;;;6.65;5.10;;;;;;;22.46;48.27;99302.16;4484242;31;20084;-72
2022/05/08 09:19:39;;;;;;;8.65;5.07;;;;;;;22.47;48.42;99295.78;4484645;31;20093;-72
2022/05/08 09:22:11;;;;;;;8.57;5.40;;;;;;;22.78;47.27;99297.06;4485118;31;20106;-72
2022/05/08 09:24:51;;;;;;;7.95;5.43;;;;;;;22.53;47.30;99298.66;4484489;31;20157;-72
2022/05/08 09:27:19;;;;;;;7.37;5.68;;;;;;;22.20;46.87;99304.72;4484728;31;20517;-72
2022/05/08 09:29:46;;;;;;;6.50;5.30;;;;;;;22.58;47.23;99296.22;4484491;31;20096;-72
2022/05/08 09:32:36;;;;;;;7.57;5.40;;;;;;;23.17;51.87;99302.69;4484576;31;20079;-72
2022/05/08 09:35:04;;;;;;;8.73;5.90;;;;;;;23.18;46.95;99294.47;4484555;31;20112;-72
2022/05/08 09:37:32;;;;;;;7.70;5.85;;;;;;;23.21;46.37;99301.25;4484523;31;20192;-72
2022/05/08 09:40:18;;;;;;;10.02;5.90;;;;;;;23.39;45.51;99296.09;4484446;31;20092;-72
2022/05/08 09:42:47;;;;;;;6.68;5.93;;;;;;;23.15;45.72;99294.88;4483170;32;20127;-72
2022/05/08 09:45:14;;;;;;;10.48;6.65;;;;;;;22.94;45.73;99293.19;4484248;31;20526;-72
2022/05/08 09:47:49;;;;;;;7.50;5.57;;;;;;;23.21;45.53;99296.72;4484212;31;20089;-72
2022/05/08 09:50:17;;;;;;;7.47;5.50;;;;;;;23.64;44.66;99295.41;4484375;31;20486;-72
2022/05/08 09:52:45;;;;;;;11.68;5.95;;;;;;;23.64;46.11;99292.75;4484126;31;20092;-72
2022/05/08 09:55:17;;;;;;;11.52;5.50;;;;;;;23.74;44.82;99286.97;4484311;31;20478;-72
2022/05/08 09:57:44;;;;;;;10.85;5.75;;;;;;;23.56;46.62;99293.78;4484151;32;20484;-72
2022/05/08 10:00:13;;;;;;;7.30;5.65;;;;;;;23.71;49.04;99290.88;4484237;31;20105;-72
2022/05/08 10:02:43;;;;;;;8.18;6.05;;;;;;;23.52;48.52;99284.53;4484478;32;20143;-72
2022/05/08 10:05:11;;;;;;;8.50;5.18;;;;;;;23.87;47.34;99291.47;4484173;31;20592;-72
2022/05/08 10:07:39;;;;;;;10.10;5.87;;;;;;;23.65;44.17;99278.34;4482876;32;20080;-72
2022/05/08 10:15:57;;;;;;;10.50;6.20;;;;;;;23.93;43.56;99274.56;4450331;32;20123;-72
2022/05/08 10:18:33;;;;;;;8.43;5.30;;;;;;;23.29;43.63;99281.50;4450295;32;20101;-72
2022/05/08 10:21:12;;;;;;;7.00;5.75;;;;;;;23.71;45.93;99274.81;4450397;32;20154;-72
2022/05/08 10:23:41;;;;;;;5.87;5.20;;;;;;;23.90;42.74;99275.00;4450239;32;20097;-72
2022/05/08 10:26:18;;;;;;;10.48;6.05;;;;;;;24.26;44.93;99270.94;4450516;32;20112;-72
2022/05/08 10:29:03;;;;;;;10.88;7.25;;;;;;;24.65;46.76;99269.09;4452229;32;20684;-72
2022/05/08 10:31:50;;;;;;;8.63;6.45;;;;;;;24.21;50.34;99268.91;4452325;32;20147;-72
2022/05/08 10:34:32;;;;;;;9.73;6.18;;;;;;;24.52;47.84;99267.25;4452355;32;20587;-72
2022/05/08 10:37:13;;;;;;;9.80;5.85;;;;;;;24.66;45.73;99267.22;4452450;32;20129;-72
2022/05/08 10:39:42;;;;;;;8.40;5.68;;;;;;;24.67;44.72;99269.69;4452167;32;20451;-72
2022/05/08 10:42:21;;;;;;;11.18;5.97;;;;;;;24.64;43.06;99270.09;4452066;32;20105;-72
2022/05/08 10:44:50;;;;;;;6.78;6.05;;;;;;;24.98;47.07;99263.47;4452033;32;20151;-72
2022/05/08 10:47:33;;;;;;;7.95;6.30;;;;;;;24.96;45.42;99264.72;4451826;32;20132;-72
2022/05/08 10:50:11;;;;;;;7.87;5.75;;;;;;;24.85;48.13;99274.28;4452154;32;20466;-72
2022/05/08 10:52:45;;;;;;;7.75;6.57;;;;;;;25.21;47.60;99262.03;4483593;32;20093;-72
2022/05/08 10:55:17;;;;;;;10.82;6.12;;;;;;;24.86;45.20;99270.59;4485979;31;20151;-72
2022/05/08 10:57:47;;;;;;;11.02;6.20;;;;;;;25.16;43.97;99259.16;4484598;32;20175;-72
2022/05/08 11:00:19;;;;;;;7.85;5.95;;;;;;;25.35;47.28;99267.31;4485760;31;20397;-72
2022/05/08 11:02:58;;;;;;;7.43;6.57;;;;;;;25.02;49.03;99268.38;4485579;31;20193;-72
2022/05/08 11:05:38;;;;;;;8.75;6.50;;;;;;;25.31;47.33;99270.44;4484735;32;20213;-72
2022/05/08 11:08:08;;;;;;;10.70;5.95;;;;;;;25.32;44.39;99263.19;4486137;31;20190;-72
2022/05/08 11:10:40;;;;;;;17.90;6.22;;;;;;;25.18;43.61;99257.09;4485828;31;20112;-72
2022/05/08 11:13:12;;;;;;;6.87;6.18;;;;;;;25.53;47.07;99256.59;4485636;32;20445;-72
2022/05/08 11:15:45;;;;;;;8.07;5.65;;;;;;;25.67;46.01;99258.06;4485720;32;20103;-72
2022/05/08 11:18:15;;;;;;;10.43;6.68;;;;;;;25.74;45.61;99249.94;4485541;31;20115;-72
2022/05/08 11:20:53;;;;;;;8.00;5.97;;;;;;;25.72;43.49;99256.56;4485610;32;20068;-72
2022/05/08 11:23:22;;;;;;;14.23;6.70;;;;;;;25.92;44.59;99254.50;4485482;32;20152;-72
2022/05/08 11:25:51;;;;;;;7.40;6.70;;;;;;;26.00;44.48;99253.37;4485269;31;20136;-72
2022/05/08 11:28:20;;;;;;;11.63;7.18;;;;;;;25.32;43.71;99242.56;4485638;31;20088;-72
2022/05/08 11:30:48;;;;;;;9.30;6.43;;;;;;;25.11;46.13;99245.63;4485375;32;20131;-72
2022/05/08 11:36:06;;;;;;;7.78;6.12;;;;;;;25.41;45.83;99244.97;4485563;31;20091;-72
2022/05/08 11:38:41;;;;;;;8.40;6.97;;;;;;;25.82;46.83;99246.13;4484737;31;20139;-72
2022/05/08 11:41:10;;;;;;;8.35;6.82;;;;;;;25.94;46.09;99238.16;4485424;31;20155;-72
2022/05/08 11:43:43;;;;;;;8.20;6.32;;;;;;;25.71;42.07;99241.50;4485432;31;20096;-72
2022/05/08 11:46:17;;;;;;;9.88;6.57;;;;;;;25.79;44.10;99241.22;4485167;31;20547;-72
2022/05/08 11:48:51;;;;;;;11.27;6.45;;;;;;;25.86;43.11;99237.41;4485290;31;20107;-72
2022/05/08 11:51:20;;;;;;;8.98;6.28;;;;;;;25.98;40.97;99242.00;4485253;32;20104;-72
2022/05/08 11:53:51;;;;;;;9.18;6.90;;;;;;;26.30;41.99;99242.66;4485276;31;20100;-72
2022/05/08 11:56:33;;;;;;;8.13;6.40;;;;;;;26.78;41.79;99232.84;4484397;32;20175;-72
2022/05/08 11:59:01;;;;;;;8.35;6.75;;;;;;;25.75;43.72;99240.03;4485448;31;20110;-72
2022/05/08 12:01:28;;;;;;;8.50;6.55;;;;;;;26.25;42.36;99233.63;4485301;31;20164;-72
2022/05/08 12:04:29;;;;;;;8.00;5.82;;;;;;;26.77;43.88;99235.75;4485422;32;20196;-72
2022/05/08 12:07:02;;;;;;;9.18;6.18;;;;;;;26.86;45.10;99229.81;4420953;32;20146;-72
2022/05/08 12:09:30;;;;;;;;;;;;;;;27.06;41.94;99228.66;4421136;32;20391;-72
2022/05/08 12:12:19;;;;;;;9.02;6.50;;;;;;;27.27;43.19;99222.69;4420812;32;19996;-72
2022/05/08 12:15:02;;;;;;;8.27;6.82;;;;;;;26.52;42.82;99220.62;4420792;32;20133;-72
2022/05/08 12:17:51;;;;;;;15.50;6.60;;;;;;;25.96;42.56;99219.94;4420707;32;20466;-72